createdAt,value
2022-11-14T00:00:35.497Z,100.00
2022-11-14T00:03:05.315Z,100.00
2022-11-14T00:05:33.544Z,100.00
2022-11-14T00:08:01.313Z,100.00
2022-11-14T00:10:29.083Z,100.00
2022-11-14T00:12:58.282Z,100.00
2022-11-14T00:15:26.077Z,100.00
2022-11-14T00:17:53.816Z,100.00
2022-11-14T00:20:21.634Z,100.00
2022-11-14T00:22:49.401Z,100.00
2022-11-14T00:25:17.412Z,100.00
2022-11-14T00:27:45.252Z,100.00
2022-11-14T00:30:14.779Z,100.00
2022-11-14T00:32:42.716Z,100.00
2022-11-14T00:35:10.908Z,100.00
2022-11-14T00:37:38.731Z,100.00
2022-11-14T00:40:07.226Z,100.00
2022-11-14T00:42:35.673Z,100.00
2022-11-14T00:45:03.461Z,100.00
2022-11-14T00:47:32.590Z,100.00
2022-11-14T00:50:00.426Z,100.00
2022-11-14T00:52:28.203Z,100.00
2022-11-14T00:54:55.967Z,100.00
2022-11-14T00:57:23.827Z,100.00
2022-11-14T00:59:51.596Z,100.00
2022-11-14T01:02:19.359Z,100.00
2022-11-14T01:04:48.599Z,100.00
2022-11-14T01:07:16.364Z,100.00
2022-11-14T01:09:44.183Z,100.00
2022-11-14T01:12:12.156Z,100.00
2022-11-14T01:14:40.526Z,100.00
2022-11-14T01:17:08.887Z,100.00
2022-11-14T01:19:36.813Z,100.00
2022-11-14T01:22:06.621Z,100.00
2022-11-14T01:24:35.192Z,100.00
2022-11-14T01:27:03.302Z,100.00
2022-11-14T01:29:31.143Z,100.00
2022-11-14T01:31:58.891Z,100.00
2022-11-14T01:34:26.761Z,100.00
2022-11-14T01:36:54.542Z,100.00
2022-11-14T01:39:23.867Z,100.00
2022-11-14T01:41:51.686Z,100.00
2022-11-14T01:44:42.303Z,100.00
2022-11-14T01:47:12.365Z,100.00
2022-11-14T01:49:42.707Z,100.00
2022-11-14T01:52:13.066Z,100.00
2022-11-14T01:54:46.771Z,100.00
2022-11-14T01:57:18.543Z,100.00
2022-11-14T01:59:55.593Z,100.00
2022-11-14T02:02:25.305Z,100.00
2022-11-14T02:04:58.540Z,100.00
2022-11-14T02:07:29.556Z,100.00
2022-11-14T02:10:01.883Z,100.00
2022-11-14T02:12:30.546Z,100.00
2022-11-14T02:15:00.228Z,100.00
2022-11-14T02:17:30.018Z,100.00
2022-11-14T02:20:08.154Z,100.00
2022-11-14T02:22:36.016Z,100.00
2022-11-14T02:25:04.060Z,100.00
2022-11-14T02:27:33.974Z,100.00
2022-11-14T02:30:06.199Z,100.00
2022-11-14T02:32:56.855Z,100.00
2022-11-14T02:35:23.137Z,100.00
2022-11-14T02:37:50.977Z,100.00
2022-11-14T02:40:18.866Z,100.00
2022-11-14T02:42:46.635Z,100.00
2022-11-14T02:45:14.697Z,100.00
2022-11-14T02:47:42.488Z,100.00
2022-11-14T02:50:10.853Z,100.00
2022-11-14T02:52:40.060Z,100.00
2022-11-14T02:55:08.486Z,100.00
2022-11-14T02:57:36.323Z,100.00
2022-11-14T03:00:06.781Z,100.00
2022-11-14T03:02:37.842Z,100.00
2022-11-14T03:05:06.154Z,100.00
2022-11-14T03:07:34.017Z,100.00
2022-11-14T03:10:03.205Z,100.00
2022-11-14T03:12:31.049Z,100.00
2022-11-14T03:14:58.815Z,100.00
2022-11-14T03:17:26.615Z,100.00
2022-11-14T03:19:54.471Z,100.00
2022-11-14T03:22:22.260Z,100.00
2022-11-14T03:24:50.044Z,100.00
2022-11-14T03:27:19.339Z,100.00
2022-11-14T03:29:47.085Z,100.00
2022-11-14T03:32:14.864Z,100.00
2022-11-14T03:34:43.361Z,100.00
2022-11-14T03:37:11.629Z,100.00
2022-11-14T03:39:39.407Z,100.00
2022-11-14T03:42:07.246Z,100.00
2022-11-14T03:44:36.399Z,100.00
2022-11-14T03:47:04.254Z,100.00
2022-11-14T03:49:32.175Z,100.00
2022-11-14T03:51:59.975Z,100.00
2022-11-14T03:54:27.826Z,100.00
2022-11-14T03:56:55.651Z,100.00
2022-11-14T03:59:23.442Z,100.00
2022-11-14T04:01:52.746Z,100.00
2022-11-14T04:04:20.654Z,100.00
2022-11-14T04:06:48.495Z,100.00
2022-11-14T04:09:16.309Z,100.00
2022-11-14T04:11:44.145Z,100.00
2022-11-14T04:14:12.010Z,100.00
2022-11-14T04:16:39.753Z,100.00
2022-11-14T04:19:09.070Z,100.00
2022-11-14T04:21:36.841Z,100.00
2022-11-14T04:24:10.812Z,100.00
2022-11-14T04:26:39.048Z,100.00
2022-11-14T04:29:06.853Z,100.00
2022-11-14T04:31:34.603Z,100.00
2022-11-14T04:34:02.564Z,100.00
2022-11-14T04:36:31.689Z,100.00
2022-11-14T04:38:59.496Z,100.00
2022-11-14T04:41:27.314Z,100.00
2022-11-14T04:43:55.097Z,100.00
2022-11-14T04:46:22.903Z,100.00
2022-11-14T04:48:50.822Z,100.00
2022-11-14T04:51:18.782Z,100.00
2022-11-14T04:53:47.941Z,100.00
2022-11-14T04:56:15.811Z,100.00
2022-11-14T04:58:43.677Z,100.00
2022-11-14T05:01:12.441Z,100.00
2022-11-14T05:03:40.321Z,100.00
2022-11-14T05:06:08.725Z,100.00
2022-11-14T05:08:36.543Z,100.00
2022-11-14T05:11:05.880Z,100.00
2022-11-14T05:13:33.661Z,100.00
2022-11-14T05:16:02.280Z,100.00
2022-11-14T05:18:30.410Z,100.00
2022-11-14T05:21:00.110Z,100.00
2022-11-14T05:23:28.668Z,100.00
2022-11-14T05:26:01.396Z,100.00
2022-11-14T05:28:31.336Z,100.00
2022-11-14T05:31:03.768Z,100.00
2022-11-14T05:33:31.933Z,100.00
2022-11-14T05:36:04.107Z,100.00
2022-11-14T05:38:32.243Z,100.00
2022-11-14T05:41:00.569Z,100.00
2022-11-14T05:43:31.653Z,100.00
2022-11-14T05:46:00.743Z,100.00
2022-11-14T05:48:29.411Z,100.00
2022-11-14T05:50:58.271Z,100.00
2022-11-14T05:53:26.961Z,100.00
2022-11-14T05:55:55.265Z,100.00
2022-11-14T05:58:23.248Z,100.00
2022-11-14T06:00:54.463Z,100.00
2022-11-14T06:03:22.748Z,100.00
2022-11-14T06:05:50.540Z,100.00
2022-11-14T06:08:18.313Z,100.00
2022-11-14T06:10:46.120Z,100.00
2022-11-14T06:13:13.891Z,100.00
2022-11-14T06:15:41.658Z,100.00
2022-11-14T06:18:10.859Z,100.00
2022-11-14T06:20:38.633Z,100.00
2022-11-14T06:23:06.514Z,100.00
2022-11-14T06:25:34.335Z,100.00
2022-11-14T06:28:02.100Z,100.00
2022-11-14T06:30:29.849Z,100.00
2022-11-14T06:32:59.193Z,100.00
2022-11-14T06:35:28.770Z,100.00
2022-11-14T06:37:56.537Z,100.00
2022-11-14T06:40:24.417Z,100.00
2022-11-14T06:42:52.234Z,100.00
2022-11-14T06:45:20.053Z,100.00
2022-11-14T06:47:47.843Z,100.00
2022-11-14T06:50:15.768Z,100.00
2022-11-14T06:52:44.930Z,100.00
2022-11-14T06:55:12.740Z,100.00
2022-11-14T06:57:40.504Z,100.00
2022-11-14T07:00:09.597Z,100.00
2022-11-14T07:02:37.435Z,100.00
2022-11-14T07:05:05.805Z,100.00
2022-11-14T07:07:33.602Z,100.00
2022-11-14T07:10:02.833Z,100.00
2022-11-14T07:12:32.676Z,100.00
2022-11-14T07:15:00.456Z,100.00
2022-11-14T07:17:31.231Z,100.00
2022-11-14T07:19:59.415Z,100.00
2022-11-14T07:22:27.168Z,100.00
2022-11-14T07:24:54.949Z,100.00
2022-11-14T07:27:24.143Z,100.00
2022-11-14T07:29:51.983Z,100.00
2022-11-14T07:32:19.751Z,100.00
2022-11-14T07:34:47.520Z,100.00
2022-11-14T07:37:15.413Z,100.00
2022-11-14T07:39:43.199Z,100.00
2022-11-14T07:42:11.002Z,100.00
2022-11-14T07:44:40.219Z,100.00
2022-11-14T07:47:08.035Z,100.00
2022-11-14T07:49:35.826Z,100.00
2022-11-14T07:52:03.650Z,100.00
2022-11-14T07:54:31.504Z,100.00
2022-11-14T07:56:59.258Z,100.00
2022-11-14T07:59:27.072Z,100.00
2022-11-14T08:01:56.169Z,100.00
2022-11-14T08:04:23.957Z,100.00
2022-11-14T08:06:51.792Z,100.00
2022-11-14T08:09:19.624Z,100.00
2022-11-14T08:11:50.173Z,100.00
2022-11-14T08:14:18.022Z,100.00
2022-11-14T08:16:45.888Z,100.00
2022-11-14T08:19:16.716Z,100.00
2022-11-14T08:21:44.569Z,100.00
2022-11-14T08:24:12.483Z,100.00
2022-11-14T08:26:40.590Z,100.00
2022-11-14T08:29:08.473Z,100.00
2022-11-14T08:31:36.253Z,100.00
2022-11-14T08:34:04.189Z,100.00
2022-11-14T08:36:33.337Z,100.00
2022-11-14T08:39:02.248Z,100.00
2022-11-14T08:41:30.238Z,100.00
2022-11-14T08:43:58.088Z,100.00
2022-11-14T08:46:25.947Z,100.00
2022-11-14T08:48:53.768Z,100.00
2022-11-14T08:51:21.933Z,100.00
2022-11-14T08:53:52.341Z,100.00
2022-11-14T08:56:20.296Z,100.00
2022-11-14T08:58:48.140Z,100.00
2022-11-14T09:01:16.125Z,100.00
2022-11-14T09:03:44.064Z,100.00
2022-11-14T09:06:11.989Z,100.00
2022-11-14T09:08:39.795Z,100.00
2022-11-14T09:11:10.060Z,100.00
2022-11-14T09:13:38.273Z,100.00
2022-11-14T09:16:06.737Z,100.00
2022-11-14T09:18:34.560Z,100.00
2022-11-14T09:21:03.122Z,100.00
2022-11-14T09:23:31.370Z,100.00
2022-11-14T09:25:59.621Z,100.00
2022-11-14T09:28:28.801Z,100.00
2022-11-14T09:31:01.763Z,100.00
2022-11-14T09:33:30.224Z,100.00
2022-11-14T09:35:59.033Z,100.00
2022-11-14T09:38:27.672Z,100.00
2022-11-14T09:41:10.324Z,100.00
2022-11-14T09:44:05.327Z,100.00
2022-11-14T09:46:38.305Z,100.00
2022-11-14T09:49:12.592Z,100.00
2022-11-14T09:51:48.981Z,100.00
2022-11-14T09:54:21.889Z,100.00
2022-11-14T09:56:49.859Z,100.00
2022-11-14T09:59:19.312Z,100.00
2022-11-14T10:01:58.334Z,100.00
2022-11-14T10:04:37.510Z,100.00
2022-11-14T10:07:16.969Z,100.00
2022-11-14T10:09:56.998Z,100.00
2022-11-14T10:12:32.841Z,100.00
2022-11-14T10:15:15.667Z,100.00
2022-11-14T10:18:20.759Z,100.00
2022-11-14T10:20:55.094Z,100.00
2022-11-14T10:23:36.097Z,100.00
2022-11-14T10:26:12.341Z,100.00
2022-11-14T10:28:49.688Z,100.00
2022-11-14T10:31:33.805Z,100.00
2022-11-14T10:34:07.205Z,100.00
2022-11-14T10:36:51.046Z,100.00
2022-11-14T10:39:23.459Z,100.00
2022-11-14T10:41:59.830Z,100.00
2022-11-14T10:44:35.369Z,100.00
2022-11-14T10:47:08.293Z,100.00
2022-11-14T10:49:38.644Z,97.00
2022-11-14T10:52:11.712Z,93.21
2022-11-14T10:54:45.641Z,91.99
2022-11-14T10:57:17.182Z,92.91
2022-11-14T10:59:45.220Z,92.55
2022-11-14T11:02:14.782Z,92.19
2022-11-14T11:04:43.844Z,90.81
2022-11-14T11:07:47.916Z,91.85
2022-11-14T11:10:41.742Z,89.64
2022-11-14T11:13:15.597Z,88.18
2022-11-14T11:15:44.126Z,88.66
2022-11-14T11:18:29.959Z,90.51
2022-11-14T11:21:08.055Z,88.40
2022-11-14T11:23:37.076Z,87.80
2022-11-14T11:26:08.992Z,86.65
2022-11-14T11:28:38.269Z,86.77
2022-11-14T11:31:07.989Z,87.13
2022-11-14T11:33:38.539Z,85.69
2022-11-14T11:36:13.150Z,85.96
2022-11-14T11:38:41.673Z,85.50
2022-11-14T11:41:33.388Z,84.17
2022-11-14T11:44:13.666Z,83.00
2022-11-14T11:46:48.708Z,82.03
2022-11-14T11:49:24.701Z,80.62
2022-11-14T11:51:56.894Z,81.64
2022-11-14T11:54:29.526Z,81.03
2022-11-14T11:57:02.675Z,82.45
2022-11-14T11:59:34.503Z,83.16
2022-11-14T12:02:04.525Z,84.04
2022-11-14T12:04:33.728Z,82.92
2022-11-14T12:07:09.594Z,82.32
2022-11-14T12:10:09.429Z,80.97
2022-11-14T12:12:49.301Z,81.76
2022-11-14T12:15:25.271Z,79.64
2022-11-14T12:18:22.611Z,80.13
2022-11-14T12:21:05.896Z,77.96
2022-11-14T12:23:53.409Z,78.65
2022-11-14T12:26:36.214Z,79.85
2022-11-14T12:29:26.233Z,80.37
2022-11-14T12:31:59.920Z,78.49
2022-11-14T12:34:32.561Z,78.60
2022-11-14T12:37:08.372Z,77.95
2022-11-14T12:39:37.388Z,79.06
2022-11-14T12:42:07.721Z,79.79
2022-11-14T12:44:38.901Z,81.29
2022-11-14T12:47:16.520Z,81.75
2022-11-14T12:50:36.353Z,82.20
2022-11-14T12:53:43.243Z,80.16
2022-11-14T12:56:22.455Z,80.32
2022-11-14T12:59:10.137Z,80.23
2022-11-14T13:01:56.229Z,82.03
2022-11-14T13:04:33.573Z,80.27
2022-11-14T13:07:34.040Z,80.68
2022-11-14T13:10:15.591Z,80.65
2022-11-14T13:13:07.390Z,78.56
2022-11-14T13:15:56.136Z,80.72
2022-11-14T13:18:43.929Z,77.02
2022-11-14T13:21:44.768Z,76.92
2022-11-14T13:24:14.322Z,77.22
2022-11-14T13:26:51.591Z,77.52
2022-11-14T13:29:57.756Z,77.73
2022-11-14T13:33:02.235Z,77.78
2022-11-14T13:35:52.967Z,76.22
2022-11-14T13:38:54.468Z,74.81
2022-11-14T13:41:47.854Z,75.08
2022-11-14T13:44:44.178Z,76.89
2022-11-14T13:47:27.104Z,76.54
2022-11-14T13:50:01.646Z,76.89
2022-11-14T13:52:32.346Z,75.04
2022-11-14T13:55:01.308Z,71.09
2022-11-14T13:57:42.927Z,67.61
2022-11-14T14:00:20.108Z,69.63
2022-11-14T14:03:20.728Z,67.54
2022-11-14T14:06:15.027Z,68.36
2022-11-14T14:08:58.870Z,68.88
2022-11-14T14:11:48.338Z,70.75
2022-11-14T14:14:34.614Z,71.90
2022-11-14T14:17:12.862Z,71.83
2022-11-14T14:19:52.927Z,69.38
2022-11-14T14:22:29.245Z,67.08
2022-11-14T14:25:04.360Z,64.64
2022-11-14T14:27:38.818Z,63.80
2022-11-14T14:30:12.232Z,65.98
2022-11-14T14:32:41.418Z,64.62
2022-11-14T14:35:32.614Z,66.85
2022-11-14T14:38:04.694Z,69.72
2022-11-14T14:40:34.427Z,71.23
2022-11-14T14:43:03.942Z,72.64
2022-11-14T14:45:46.287Z,69.94
2022-11-14T14:48:17.220Z,65.50
2022-11-14T14:50:50.781Z,64.00
2022-11-14T14:53:21.651Z,63.69
2022-11-14T14:55:55.769Z,64.24
2022-11-14T14:58:27.742Z,66.95
2022-11-14T15:00:59.022Z,71.92
2022-11-14T15:03:36.590Z,73.78
2022-11-14T15:06:07.763Z,74.69
2022-11-14T15:08:39.255Z,72.82
2022-11-14T15:11:08.158Z,72.03
2022-11-14T15:13:38.663Z,67.89
2022-11-14T15:16:07.739Z,66.07
2022-11-14T15:18:37.938Z,65.48
2022-11-14T15:21:10.941Z,65.80
2022-11-14T15:23:39.786Z,66.98
2022-11-14T15:26:15.547Z,68.14
2022-11-14T15:28:43.474Z,69.52
2022-11-14T15:31:19.759Z,69.21
2022-11-14T15:34:02.126Z,69.43
2022-11-14T15:36:30.049Z,69.58
2022-11-14T15:39:02.832Z,73.07
2022-11-14T15:41:31.797Z,75.25
2022-11-14T15:44:02.921Z,74.13
2022-11-14T15:46:42.681Z,74.47
2022-11-14T15:49:20.646Z,71.68
2022-11-14T15:51:51.207Z,72.35
2022-11-14T15:54:24.484Z,73.13
2022-11-14T15:56:53.128Z,77.34
2022-11-14T15:59:21.149Z,82.18
2022-11-14T16:01:52.876Z,86.99
2022-11-14T16:04:26.531Z,89.43
2022-11-14T16:06:54.403Z,91.16
2022-11-14T16:09:24.101Z,93.37
2022-11-14T16:11:52.120Z,95.18
2022-11-14T16:14:19.945Z,96.78
2022-11-14T16:16:47.738Z,97.71
2022-11-14T16:19:17.292Z,97.48
2022-11-14T16:21:46.539Z,97.39
2022-11-14T16:24:19.614Z,98.21
2022-11-14T16:26:47.843Z,99.70
2022-11-14T16:29:16.268Z,100.00
2022-11-14T16:31:44.051Z,100.00
2022-11-14T16:34:20.902Z,100.00
2022-11-14T16:36:57.897Z,100.00
2022-11-14T16:39:25.915Z,100.00
2022-11-14T16:41:53.723Z,100.00
2022-11-14T16:44:21.526Z,100.00
2022-11-14T16:46:49.402Z,100.00
2022-11-14T16:49:19.649Z,100.00
2022-11-14T16:51:50.988Z,100.00
2022-11-14T16:54:20.297Z,100.00
2022-11-14T16:56:48.477Z,100.00
2022-11-14T16:59:16.761Z,100.00
2022-11-14T17:01:44.679Z,100.00
2022-11-14T17:04:12.638Z,100.00
2022-11-14T17:06:40.791Z,100.00
2022-11-14T17:09:14.203Z,100.00
2022-11-14T17:11:42.034Z,100.00
2022-11-14T17:14:09.886Z,100.00
2022-11-14T17:16:37.681Z,100.00
2022-11-14T17:19:05.545Z,100.00
2022-11-14T17:21:33.408Z,100.00
2022-11-14T17:24:02.855Z,100.00
2022-11-14T17:26:31.992Z,100.00
2022-11-14T17:28:59.838Z,100.00
2022-11-14T17:31:27.619Z,100.00
2022-11-14T17:33:56.745Z,100.00
2022-11-14T17:36:25.745Z,100.00
2022-11-14T17:38:54.176Z,100.00
2022-11-14T17:41:21.995Z,100.00
2022-11-14T17:43:56.636Z,100.00
2022-11-14T17:46:24.464Z,100.00
2022-11-14T17:48:52.285Z,100.00
2022-11-14T17:51:20.097Z,100.00
2022-11-14T17:53:47.903Z,100.00
2022-11-14T17:56:17.734Z,100.00
2022-11-14T17:58:45.946Z,100.00
2022-11-14T18:01:20.543Z,100.00
2022-11-14T18:03:48.666Z,100.00
2022-11-14T18:06:19.150Z,100.00
2022-11-14T18:08:47.652Z,100.00
2022-11-14T18:11:18.277Z,100.00
2022-11-14T18:13:46.271Z,100.00
2022-11-14T18:16:15.782Z,100.00
2022-11-14T18:18:45.374Z,100.00
2022-11-14T18:21:15.970Z,100.00
2022-11-14T18:23:44.313Z,100.00
2022-11-14T18:26:12.533Z,100.00
2022-11-14T18:28:41.123Z,100.00
2022-11-14T18:31:10.944Z,100.00
2022-11-14T18:33:39.831Z,100.00
2022-11-14T18:36:13.012Z,100.00
2022-11-14T18:38:41.744Z,100.00
2022-11-14T18:41:11.725Z,100.00
2022-11-14T18:43:39.533Z,100.00
2022-11-14T18:46:09.418Z,100.00
2022-11-14T18:48:38.602Z,100.00
2022-11-14T18:51:08.637Z,100.00
2022-11-14T18:53:38.103Z,100.00
2022-11-14T18:56:06.522Z,100.00
2022-11-14T18:58:36.048Z,100.00
2022-11-14T19:01:12.604Z,100.00
2022-11-14T19:03:40.913Z,100.00
2022-11-14T19:06:11.105Z,100.00
2022-11-14T19:08:40.660Z,100.00
2022-11-14T19:11:31.635Z,100.00
2022-11-14T19:14:03.000Z,100.00
2022-11-14T19:16:31.569Z,100.00
2022-11-14T19:19:00.027Z,100.00
2022-11-14T19:21:28.814Z,100.00
2022-11-14T19:23:59.513Z,100.00
2022-11-14T19:26:28.292Z,100.00
2022-11-14T19:28:56.648Z,100.00
2022-11-14T19:31:25.182Z,100.00
2022-11-14T19:33:52.959Z,100.00
2022-11-14T19:36:52.641Z,100.00
2022-11-14T19:39:13.867Z,100.00
2022-11-14T19:41:41.827Z,100.00
2022-11-14T19:44:09.949Z,100.00
2022-11-14T19:46:37.773Z,100.00
2022-11-14T19:49:07.359Z,100.00
2022-11-14T19:51:35.877Z,100.00
2022-11-14T19:54:04.046Z,100.00
2022-11-14T19:56:33.177Z,100.00
2022-11-14T19:59:02.192Z,100.00
2022-11-14T20:01:30.647Z,100.00
2022-11-14T20:04:00.178Z,100.00
2022-11-14T20:06:30.270Z,100.00
2022-11-14T20:08:59.445Z,100.00
2022-11-14T20:11:29.100Z,100.00
2022-11-14T20:14:01.154Z,100.00
2022-11-14T20:16:31.501Z,100.00
2022-11-14T20:19:01.692Z,100.00
2022-11-14T20:21:32.049Z,100.00
2022-11-14T20:24:00.585Z,100.00
2022-11-14T20:26:28.688Z,100.00
2022-11-14T20:28:59.815Z,100.00
2022-11-14T20:31:30.003Z,100.00
2022-11-14T20:33:57.946Z,100.00
2022-11-14T20:36:31.999Z,100.00
2022-11-14T20:39:03.307Z,100.00
2022-11-14T20:41:31.474Z,100.00
2022-11-14T20:44:01.651Z,100.00
2022-11-14T20:46:29.573Z,100.00
2022-11-14T20:48:58.198Z,100.00
2022-11-14T20:51:28.076Z,100.00
2022-11-14T20:53:56.513Z,100.00
2022-11-14T20:56:24.411Z,100.00
2022-11-14T20:58:52.904Z,100.00
2022-11-14T21:01:22.477Z,100.00
2022-11-14T21:03:50.565Z,100.00
2022-11-14T21:06:19.112Z,100.00
2022-11-14T21:08:46.965Z,100.00
2022-11-14T21:11:18.231Z,100.00
2022-11-14T21:13:58.876Z,100.00
2022-11-14T21:16:32.399Z,100.00
2022-11-14T21:19:01.371Z,100.00
2022-11-14T21:21:30.435Z,100.00
2022-11-14T21:23:58.639Z,100.00
2022-11-14T21:26:27.766Z,100.00
2022-11-14T21:28:57.512Z,100.00
2022-11-14T21:31:31.682Z,100.00
2022-11-14T21:34:00.982Z,100.00
2022-11-14T21:36:46.765Z,100.00
2022-11-14T21:39:16.827Z,100.00
2022-11-14T21:41:48.272Z,100.00
2022-11-14T21:44:18.071Z,100.00
2022-11-14T21:46:48.619Z,100.00
2022-11-14T21:49:16.662Z,100.00
2022-11-14T21:51:44.458Z,100.00
2022-11-14T21:54:12.317Z,100.00
2022-11-14T21:56:40.067Z,100.00
2022-11-14T21:59:14.915Z,100.00
2022-11-14T22:02:02.174Z,100.00
2022-11-14T22:04:32.398Z,100.00
2022-11-14T22:07:00.747Z,100.00
2022-11-14T22:09:29.268Z,100.00
2022-11-14T22:11:57.424Z,100.00
2022-11-14T22:14:25.723Z,100.00
2022-11-14T22:16:53.556Z,100.00
2022-11-14T22:19:21.625Z,100.00
2022-11-14T22:21:51.007Z,100.00
2022-11-14T22:24:18.795Z,100.00
2022-11-14T22:26:46.691Z,100.00
2022-11-14T22:29:14.534Z,100.00
2022-11-14T22:31:42.417Z,100.00
2022-11-14T22:34:11.772Z,100.00
2022-11-14T22:36:39.621Z,100.00
2022-11-14T22:39:08.749Z,100.00
2022-11-14T22:41:36.522Z,100.00
2022-11-14T22:44:04.495Z,100.00
2022-11-14T22:46:32.241Z,100.00
2022-11-14T22:49:00.248Z,100.00
2022-11-14T22:51:29.057Z,100.00
2022-11-14T22:53:58.562Z,100.00
2022-11-14T22:56:30.012Z,100.00
2022-11-14T22:59:00.343Z,100.00
2022-11-14T23:01:29.753Z,100.00
2022-11-14T23:03:59.488Z,100.00
2022-11-14T23:06:28.577Z,100.00
2022-11-14T23:08:56.838Z,100.00
2022-11-14T23:11:28.198Z,100.00
2022-11-14T23:13:57.609Z,100.00
2022-11-14T23:16:27.254Z,100.00
2022-11-14T23:18:56.936Z,100.00
2022-11-14T23:21:27.686Z,100.00
2022-11-14T23:23:55.803Z,100.00
2022-11-14T23:26:24.422Z,100.00
2022-11-14T23:28:54.803Z,100.00
2022-11-14T23:31:22.795Z,100.00
2022-11-14T23:33:52.287Z,100.00
2022-11-14T23:36:20.472Z,100.00
2022-11-14T23:38:48.473Z,100.00
2022-11-14T23:41:18.901Z,100.00
2022-11-14T23:43:47.343Z,100.00
2022-11-14T23:46:16.945Z,100.00
2022-11-14T23:48:44.809Z,100.00
2022-11-14T23:51:13.713Z,100.00
2022-11-14T23:53:41.822Z,100.00
2022-11-14T23:56:13.014Z,100.00
2022-11-14T23:58:41.623Z,100.00
